sensor_id;sensor_type;location;lat;lon;timestamp;pressure;altitude;pressure_sealevel;temperature;humidity
64827;BME280;51265;53.972;12.286;2023-03-23T00:01:34;99497.44;;;10.00;100.00
64827;BME280;51265;53.972;12.286;2023-03-23T00:04:03;99483.34;;;9.92;100.00
64827;BME280;51265;53.972;12.286;2023-03-23T00:06:29;99497.09;;;9.92;100.00
64827;BME280;51265;53.972;12.286;2023-03-23T00:08:59;99498.34;;;9.86;100.00
64827;BME280;51265;53.972;12.286;2023-03-23T00:11:27;99495.78;;;9.81;100.00
64827;BME280;51265;53.972;12.286;2023-03-23T00:13:56;99491.56;;;9.75;100.00
64827;BME280;51265;53.972;12.286;2023-03-23T00:16:29;99479.59;;;9.71;100.00
64827;BME280;51265;53.972;12.286;2023-03-23T00:19:08;99489.25;;;9.60;100.00
64827;BME280;51265;53.972;12.286;2023-03-23T00:21:36;99489.25;;;9.60;100.00
64827;BME280;51265;53.972;12.286;2023-03-23T00:24:15;99483.41;;;9.53;100.00
64827;BME280;51265;53.972;12.286;2023-03-23T00:26:44;99475.31;;;9.47;100.00
64827;BME280;51265;53.972;12.286;2023-03-23T00:29:14;99474.06;;;9.54;100.00
64827;BME280;51265;53.972;12.286;2023-03-23T00:31:42;99470.97;;;9.55;100.00
64827;BME280;51265;53.972;12.286;2023-03-23T00:34:15;99482.78;;;9.56;100.00
64827;BME280;51265;53.972;12.286;2023-03-23T00:36:49;99488.13;;;9.61;100.00
64827;BME280;51265;53.972;12.286;2023-03-23T00:39:17;99492.66;;;9.57;100.00
64827;BME280;51265;53.972;12.286;2023-03-23T00:41:44;99505.41;;;9.53;100.00
64827;BME280;51265;53.972;12.286;2023-03-23T00:44:11;99508.31;;;9.47;100.00
64827;BME280;51265;53.972;12.286;2023-03-23T00:46:44;99500.50;;;9.32;100.00
64827;BME280;51265;53.972;12.286;2023-03-23T00:49:17;99507.41;;;9.21;100.00
64827;BME280;51265;53.972;12.286;2023-03-23T00:51:44;99509.78;;;9.14;100.00
64827;BME280;51265;53.972;12.286;2023-03-23T00:54:11;99510.25;;;9.07;100.00
64827;BME280;51265;53.972;12.286;2023-03-23T00:56:38;99513.94;;;9.03;100.00
64827;BME280;51265;53.972;12.286;2023-03-23T00:59:08;99520.56;;;9.02;100.00
64827;BME280;51265;53.972;12.286;2023-03-23T01:01:35;99511.94;;;8.94;100.00
64827;BME280;51265;53.972;12.286;2023-03-23T01:04:03;99527.13;;;8.92;100.00
64827;BME280;51265;53.972;12.286;2023-03-23T01:06:32;99526.19;;;8.96;100.00
64827;BME280;51265;53.972;12.286;2023-03-23T01:09:02;99525.19;;;8.92;100.00
64827;BME280;51265;53.972;12.286;2023-03-23T01:11:29;99529.06;;;8.91;100.00
64827;BME280;51265;53.972;12.286;2023-03-23T01:13:55;99529.22;;;8.86;100.00
64827;BME280;51265;53.972;12.286;2023-03-23T01:16:21;99530.69;;;8.92;100.00
64827;BME280;51265;53.972;12.286;2023-03-23T01:18:47;99543.28;;;8.93;100.00
64827;BME280;51265;53.972;12.286;2023-03-23T01:21:15;99543.59;;;8.92;100.00
64827;BME280;51265;53.972;12.286;2023-03-23T01:23:43;99540.34;;;8.90;100.00
64827;BME280;51265;53.972;12.286;2023-03-23T01:26:15;99542.81;;;8.91;100.00
64827;BME280;51265;53.972;12.286;2023-03-23T01:28:43;99546.34;;;8.92;100.00
64827;BME280;51265;53.972;12.286;2023-03-23T01:31:11;99545.03;;;8.89;100.00
64827;BME280;51265;53.972;12.286;2023-03-23T01:33:39;99545.56;;;8.91;100.00
64827;BME280;51265;53.972;12.286;2023-03-23T01:36:14;99540.34;;;8.90;100.00
64827;BME280;51265;53.972;12.286;2023-03-23T01:38:46;99543.94;;;8.90;100.00
64827;BME280;51265;53.972;12.286;2023-03-23T01:41:14;99553.28;;;8.89;100.00
64827;BME280;51265;53.972;12.286;2023-03-23T01:46:24;99549.09;;;8.92;100.00
64827;BME280;51265;53.972;12.286;2023-03-23T01:48:51;99558.16;;;8.92;100.00
64827;BME280;51265;53.972;12.286;2023-03-23T01:51:18;99545.56;;;8.91;100.00
64827;BME280;51265;53.972;12.286;2023-03-23T01:53:54;99545.56;;;8.91;100.00
64827;BME280;51265;53.972;12.286;2023-03-23T01:56:28;99552.66;;;8.92;100.00
64827;BME280;51265;53.972;12.286;2023-03-23T01:58:58;99539.06;;;8.87;100.00
64827;BME280;51265;53.972;12.286;2023-03-23T02:01:26;99536.81;;;8.89;100.00
64827;BME280;51265;53.972;12.286;2023-03-23T02:03:54;99539.41;;;8.94;100.00
64827;BME280;51265;53.972;12.286;2023-03-23T02:06:24;99537.44;;;8.86;100.00
64827;BME280;51265;53.972;12.286;2023-03-23T02:09:15;99533.06;;;8.85;100.00
64827;BME280;51265;53.972;12.286;2023-03-23T02:11:47;99533.06;;;8.85;100.00
64827;BME280;51265;53.972;12.286;2023-03-23T02:14:16;99529.69;;;8.88;100.00
64827;BME280;51265;53.972;12.286;2023-03-23T02:23:13;99520.97;;;8.86;100.00
64827;BME280;51265;53.972;12.286;2023-03-23T02:25:46;99528.69;;;8.84;100.00
64827;BME280;51265;53.972;12.286;2023-03-23T02:28:49;99528.69;;;8.84;100.00
64827;BME280;51265;53.972;12.286;2023-03-23T02:31:44;99522.59;;;8.87;100.00
64827;BME280;51265;53.972;12.286;2023-03-23T02:34:27;99521.97;;;8.90;100.00
64827;BME280;51265;53.972;12.286;2023-03-23T02:37:00;99525.81;;;8.89;100.00
64827;BME280;51265;53.972;12.286;2023-03-23T02:39:44;99511.59;;;8.87;100.00
64827;BME280;51265;53.972;12.286;2023-03-23T02:42:16;99510.00;;;8.86;100.00
64827;BME280;51265;53.972;12.286;2023-03-23T02:44:45;99512.75;;;8.86;100.00
64827;BME280;51265;53.972;12.286;2023-03-23T02:47:23;99518.53;;;8.85;100.00
64827;BME280;51265;53.972;12.286;2023-03-23T02:49:54;99522.59;;;8.87;100.00
64827;BME280;51265;53.972;12.286;2023-03-23T02:52:28;99521.59;;;8.83;100.00
64827;BME280;51265;53.972;12.286;2023-03-23T02:54:56;99521.59;;;8.83;100.00
64827;BME280;51265;53.972;12.286;2023-03-23T02:57:29;99521.59;;;8.83;100.00
64827;BME280;51265;53.972;12.286;2023-03-23T02:59:58;99518.84;;;8.83;100.00
64827;BME280;51265;53.972;12.286;2023-03-23T03:02:27;99513.84;;;8.85;100.00
64827;BME280;51265;53.972;12.286;2023-03-23T03:05:05;99511.22;;;8.80;100.00
64827;BME280;51265;53.972;12.286;2023-03-23T03:07:58;99504.44;;;8.78;100.00
64827;BME280;51265;53.972;12.286;2023-03-23T03:10:34;99506.88;;;8.79;100.00
64827;BME280;51265;53.972;12.286;2023-03-23T03:13:07;99502.38;;;8.83;100.00
64827;BME280;51265;53.972;12.286;2023-03-23T03:16:00;99500.06;;;8.77;100.00
64827;BME280;51265;53.972;12.286;2023-03-23T03:18:43;99486.66;;;8.75;100.00
64827;BME280;51265;53.972;12.286;2023-03-23T03:21:12;99485.84;;;8.75;100.00
64827;BME280;51265;53.972;12.286;2023-03-23T03:23:43;99485.06;;;8.74;100.00
64827;BME280;51265;53.972;12.286;2023-03-23T03:26:12;99486.28;;;8.68;100.00
64827;BME280;51265;53.972;12.286;2023-03-23T03:28:50;99474.19;;;8.69;100.00
64827;BME280;51265;53.972;12.286;2023-03-23T03:31:32;99462.72;;;8.67;100.00
64827;BME280;51265;53.972;12.286;2023-03-23T03:33:59;99469.19;;;8.71;100.00
64827;BME280;51265;53.972;12.286;2023-03-23T03:36:30;99470.00;;;8.71;100.00
64827;BME280;51265;53.972;12.286;2023-03-23T03:39:08;99465.66;;;8.70;100.00
64827;BME280;51265;53.972;12.286;2023-03-23T03:41:37;99460.16;;;8.70;100.00
64827;BME280;51265;53.972;12.286;2023-03-23T03:44:04;99462.75;;;8.76;100.00
64827;BME280;51265;53.972;12.286;2023-03-23T03:46:32;99457.59;;;8.74;100.00
64827;BME280;51265;53.972;12.286;2023-03-23T03:48:59;99465.31;;;8.72;100.00
64827;BME280;51265;53.972;12.286;2023-03-23T03:51:27;99462.75;;;8.76;100.00
64827;BME280;51265;53.972;12.286;2023-03-23T03:53:55;99459.84;;;8.72;100.00
64827;BME280;51265;53.972;12.286;2023-03-23T03:56:22;99459.84;;;8.72;100.00
64827;BME280;51265;53.972;12.286;2023-03-23T03:59:02;99455.34;;;8.76;100.00
64827;BME280;51265;53.972;12.286;2023-03-23T04:01:50;99466.63;;;8.75;100.00
64827;BME280;51265;53.972;12.286;2023-03-23T04:04:20;99482.16;;;8.79;100.00
64827;BME280;51265;53.972;12.286;2023-03-23T04:06:48;99483.78;;;8.80;100.00
64827;BME280;51265;53.972;12.286;2023-03-23T04:09:15;99487.66;;;8.79;100.00
64827;BME280;51265;53.972;12.286;2023-03-23T04:11:42;99489.28;;;8.80;100.00
64827;BME280;51265;53.972;12.286;2023-03-23T04:14:43;99461.66;;;8.85;100.00
64827;BME280;51265;53.972;12.286;2023-03-23T04:17:09;99452.44;;;8.81;100.00
64827;BME280;51265;53.972;12.286;2023-03-23T04:19:37;99462.63;;;8.81;100.00
64827;BME280;51265;53.972;12.286;2023-03-23T04:22:04;99446.84;;;8.86;100.00
64827;BME280;51265;53.972;12.286;2023-03-23T04:24:33;99449.06;;;8.84;100.00
64827;BME280;51265;53.972;12.286;2023-03-23T04:27:03;99453.75;;;8.84;100.00
64827;BME280;51265;53.972;12.286;2023-03-23T04:29:30;99455.56;;;8.88;100.00
64827;BME280;51265;53.972;12.286;2023-03-23T04:32:19;99452.81;;;8.88;100.00
64827;BME280;51265;53.972;12.286;2023-03-23T04:34:50;99449.75;;;8.90;100.00
64827;BME280;51265;53.972;12.286;2023-03-23T04:37:19;99455.06;;;8.86;100.00
64827;BME280;51265;53.972;12.286;2023-03-23T04:39:45;99448.94;;;8.89;100.00
64827;BME280;51265;53.972;12.286;2023-03-23T04:42:13;99438.59;;;8.86;100.00
64827;BME280;51265;53.972;12.286;2023-03-23T04:44:59;99444.53;;;8.80;100.00
64827;BME280;51265;53.972;12.286;2023-03-23T04:47:34;99442.44;;;8.85;100.00
64827;BME280;51265;53.972;12.286;2023-03-23T04:50:12;99435.97;;;8.81;100.00
64827;BME280;51265;53.972;12.286;2023-03-23T04:52:40;99430.47;;;8.81;100.00
64827;BME280;51265;53.972;12.286;2023-03-23T04:55:12;99438.88;;;8.76;100.00
64827;BME280;51265;53.972;12.286;2023-03-23T04:57:40;99440.03;;;8.84;100.00
64827;BME280;51265;53.972;12.286;2023-03-23T05:00:25;99441.47;;;8.81;100.00
64827;BME280;51265;53.972;12.286;2023-03-23T05:02:54;99427.25;;;8.79;100.00
64827;BME280;51265;53.972;12.286;2023-03-23T05:05:23;99420.50;;;8.85;100.00
64827;BME280;51265;53.972;12.286;2023-03-23T05:07:53;99416.28;;;8.79;100.00
64827;BME280;51265;53.972;12.286;2023-03-23T05:10:22;99414.66;;;8.78;100.00
64827;BME280;51265;53.972;12.286;2023-03-23T05:12:52;99409.66;;;8.80;100.00
64827;BME280;51265;53.972;12.286;2023-03-23T05:15:19;99422.13;;;8.86;100.00
64827;BME280;51265;53.972;12.286;2023-03-23T05:17:46;99414.38;;;8.88;100.00
64827;BME280;51265;53.972;12.286;2023-03-23T05:20:18;99413.91;;;8.86;100.00
64827;BME280;51265;53.972;12.286;2023-03-23T05:22:48;99396.91;;;8.84;100.00
64827;BME280;51265;53.972;12.286;2023-03-23T05:25:19;99377.22;;;8.82;100.00
64827;BME280;51265;53.972;12.286;2023-03-23T05:27:51;99370.09;;;8.81;100.00
64827;BME280;51265;53.972;12.286;2023-03-23T05:30:38;99387.84;;;8.75;100.00
64827;BME280;51265;53.972;12.286;2023-03-23T05:33:06;99394.69;;;8.86;100.00
64827;BME280;51265;53.972;12.286;2023-03-23T05:35:45;99400.31;;;8.90;100.00
64827;BME280;51265;53.972;12.286;2023-03-23T05:38:13;99427.94;;;8.93;100.00
64827;BME280;51265;53.972;12.286;2023-03-23T05:40:41;99450.44;;;8.95;100.00
64827;BME280;51265;53.972;12.286;2023-03-23T05:43:22;99453.66;;;8.97;100.00
64827;BME280;51265;53.972;12.286;2023-03-23T05:45:59;99453.69;;;9.06;100.00
64827;BME280;51265;53.972;12.286;2023-03-23T05:48:26;99461.16;;;9.14;100.00
64827;BME280;51265;53.972;12.286;2023-03-23T05:50:52;99468.13;;;9.12;100.00
64827;BME280;51265;53.972;12.286;2023-03-23T05:53:22;99451.31;;;9.22;100.00
64827;BME280;51265;53.972;12.286;2023-03-23T05:55:49;99443.59;;;9.24;100.00
64827;BME280;51265;53.972;12.286;2023-03-23T05:58:24;99439.72;;;9.25;100.00
64827;BME280;51265;53.972;12.286;2023-03-23T06:00:50;99434.69;;;9.27;100.00
64827;BME280;51265;53.972;12.286;2023-03-23T06:03:26;99440.06;;;9.32;100.00
64827;BME280;51265;53.972;12.286;2023-03-23T06:06:09;99432.94;;;9.31;100.00
64827;BME280;51265;53.972;12.286;2023-03-23T06:08:47;99422.44;;;9.33;100.00
64827;BME280;51265;53.972;12.286;2023-03-23T06:11:16;99429.06;;;9.32;100.00
64827;BME280;51265;53.972;12.286;2023-03-23T06:13:53;99434.72;;;9.36;100.00
64827;BME280;51265;53.972;12.286;2023-03-23T06:16:20;99434.09;;;9.39;100.00
64827;BME280;51265;53.972;12.286;2023-03-23T06:18:56;99436.50;;;9.40;100.00
64827;BME280;51265;53.972;12.286;2023-03-23T06:21:30;99442.00;;;9.40;100.00
64827;BME280;51265;53.972;12.286;2023-03-23T06:24:08;99448.47;;;9.44;100.00
64827;BME280;51265;53.972;12.286;2023-03-23T06:26:38;99442.00;;;9.40;100.00
64827;BME280;51265;53.972;12.286;2023-03-23T06:29:08;99449.13;;;9.41;100.00
64827;BME280;51265;53.972;12.286;2023-03-23T06:31:53;99444.94;;;9.53;100.00
64827;BME280;51265;53.972;12.286;2023-03-23T06:34:21;99441.72;;;9.51;100.00
64827;BME280;51265;53.972;12.286;2023-03-23T06:37:06;99445.91;;;9.57;100.00
64827;BME280;51265;53.972;12.286;2023-03-23T06:39:38;99440.41;;;9.57;100.00
64827;BME280;51265;53.972;12.286;2023-03-23T06:42:24;99437.53;;;9.62;100.00
64827;BME280;51265;53.972;12.286;2023-03-23T06:45:08;99431.06;;;9.58;100.00
64827;BME280;51265;53.972;12.286;2023-03-23T06:47:36;99437.69;;;9.65;100.00
64827;BME280;51265;53.972;12.286;2023-03-23T06:50:03;99432.03;;;9.62;100.00
64827;BME280;51265;53.972;12.286;2023-03-23T06:52:31;99437.84;;;9.69;100.00
64827;BME280;51265;53.972;12.286;2023-03-23T06:54:58;99429.44;;;9.65;100.00
64827;BME280;51265;53.972;12.286;2023-03-23T06:57:24;99425.56;;;9.66;100.00
64827;BME280;51265;53.972;12.286;2023-03-23T06:59:52;99424.78;;;9.75;100.00
64827;BME280;51265;53.972;12.286;2023-03-23T07:02:18;99423.63;;;9.84;100.00
64827;BME280;51265;53.972;12.286;2023-03-23T07:04:49;99418.31;;;9.88;100.00
64827;BME280;51265;53.972;12.286;2023-03-23T07:07:20;99418.78;;;9.90;100.00
64827;BME280;51265;53.972;12.286;2023-03-23T07:09:51;99420.25;;;9.87;100.00
64827;BME280;51265;53.972;12.286;2023-03-23T07:12:21;99420.72;;;9.98;100.00
64827;BME280;51265;53.972;12.286;2023-03-23T07:14:50;99418.94;;;10.02;100.00
64827;BME280;51265;53.972;12.286;2023-03-23T07:17:16;99419.25;;;10.09;100.00
64827;BME280;51265;53.972;12.286;2023-03-23T07:20:02;99411.66;;;10.32;100.00
64827;BME280;51265;53.972;12.286;2023-03-23T07:22:29;99417.03;;;10.29;100.00
64827;BME280;51265;53.972;12.286;2023-03-23T07:25:04;99419.78;;;10.29;100.00
64827;BME280;51265;53.972;12.286;2023-03-23T07:27:44;99416.88;;;10.25;100.00
64827;BME280;51265;53.972;12.286;2023-03-23T07:30:20;99419.75;;;10.37;100.00
64827;BME280;51265;53.972;12.286;2023-03-23T07:32:46;99416.19;;;10.28;100.00
64827;BME280;51265;53.972;12.286;2023-03-23T07:35:13;99425.25;;;10.46;100.00
64827;BME280;51265;53.972;12.286;2023-03-23T07:37:58;99425.53;;;10.62;100.00
64827;BME280;51265;53.972;12.286;2023-03-23T07:40:25;99417.28;;;10.53;100.00
64827;BME280;51265;53.972;12.286;2023-03-23T07:42:56;99415.16;;;10.59;100.00
64827;BME280;51265;53.972;12.286;2023-03-23T07:45:33;99422.66;;;10.50;100.00
64827;BME280;51265;53.972;12.286;2023-03-23T07:48:00;99420.66;;;10.67;100.00
64827;BME280;51265;53.972;12.286;2023-03-23T07:50:26;99421.44;;;10.77;100.00
64827;BME280;51265;53.972;12.286;2023-03-23T07:52:56;99414.63;;;10.83;100.00
64827;BME280;51265;53.972;12.286;2023-03-23T07:55:24;99416.00;;;10.97;100.00
64827;BME280;51265;53.972;12.286;2023-03-23T07:58:00;99412.00;;;11.16;100.00
64827;BME280;51265;53.972;12.286;2023-03-23T08:00:26;99411.00;;;11.29;100.00
64827;BME280;51265;53.972;12.286;2023-03-23T08:02:55;99403.66;;;11.33;100.00
64827;BME280;51265;53.972;12.286;2023-03-23T08:05:42;99404.97;;;11.57;100.00
64827;BME280;51265;53.972;12.286;2023-03-23T08:08:27;99396.91;;;11.52;100.00
64827;BME280;51265;53.972;12.286;2023-03-23T08:11:03;99406.78;;;11.53;100.00
64827;BME280;51265;53.972;12.286;2023-03-23T08:13:48;99394.34;;;11.46;100.00
64827;BME280;51265;53.972;12.286;2023-03-23T08:16:33;99390.44;;;11.47;100.00
64827;BME280;51265;53.972;12.286;2023-03-23T08:19:12;99386.78;;;11.35;100.00
64827;BME280;51265;53.972;12.286;2023-03-23T08:21:57;99390.06;;;11.28;100.00
64827;BME280;51265;53.972;12.286;2023-03-23T08:24:38;99376.34;;;11.19;100.00
64827;BME280;51265;53.972;12.286;2023-03-23T08:27:23;99384.69;;;11.02;100.00
64827;BME280;51265;53.972;12.286;2023-03-23T08:30:00;99399.63;;;11.01;100.00
64827;BME280;51265;53.972;12.286;2023-03-23T08:33:05;99388.94;;;11.29;100.00
64827;BME280;51265;53.972;12.286;2023-03-23T08:35:43;99397.41;;;11.45;100.00
64827;BME280;51265;53.972;12.286;2023-03-23T08:38:30;99387.06;;;11.42;100.00
64827;BME280;51265;53.972;12.286;2023-03-23T08:41:23;99383.50;;;11.41;100.00
64827;BME280;51265;53.972;12.286;2023-03-23T08:43:50;99390.03;;;11.58;100.00
64827;BME280;51265;53.972;12.286;2023-03-23T08:46:38;99384.81;;;11.86;100.00
64827;BME280;51265;53.972;12.286;2023-03-23T08:49:13;99366.38;;;11.99;100.00
64827;BME280;51265;53.972;12.286;2023-03-23T08:52:11;99352.91;;;11.97;100.00
64827;BME280;51265;53.972;12.286;2023-03-23T08:54:54;99369.97;;;12.11;100.00
64827;BME280;51265;53.972;12.286;2023-03-23T08:57:38;99357.44;;;12.47;100.00
64827;BME280;51265;53.972;12.286;2023-03-23T09:00:19;99357.13;;;12.73;100.00
64827;BME280;51265;53.972;12.286;2023-03-23T09:03:08;99347.91;;;12.69;100.00
64827;BME280;51265;53.972;12.286;2023-03-23T09:05:49;99340.31;;;12.66;100.00
64827;BME280;51265;53.972;12.286;2023-03-23T09:08:16;99326.06;;;12.64;100.00
64827;BME280;51265;53.972;12.286;2023-03-23T09:10:42;99331.09;;;12.62;100.00
64827;BME280;51265;53.972;12.286;2023-03-23T09:13:08;99330.78;;;12.63;100.00
64827;BME280;51265;53.972;12.286;2023-03-23T09:15:34;99326.28;;;12.71;100.00
64827;BME280;51265;53.972;12.286;2023-03-23T09:18:01;99321.34;;;12.89;100.00
64827;BME280;51265;53.972;12.286;2023-03-23T09:20:27;99325.94;;;12.85;100.00
64827;BME280;51265;53.972;12.286;2023-03-23T09:22:55;99306.03;;;12.79;100.00
64827;BME280;51265;53.972;12.286;2023-03-23T09:25:25;99320.06;;;12.86;100.00
64827;BME280;51265;53.972;12.286;2023-03-23T09:27:54;99319.63;;;12.96;100.00
64827;BME280;51265;53.972;12.286;2023-03-23T09:30:29;99298.66;;;12.83;100.00
64827;BME280;51265;53.972;12.286;2023-03-23T09:32:57;99316.63;;;12.77;100.00
64827;BME280;51265;53.972;12.286;2023-03-23T09:35:27;99302.69;;;12.74;100.00
64827;BME280;51265;53.972;12.286;2023-03-23T09:37:54;99292.78;;;12.60;100.00
64827;BME280;51265;53.972;12.286;2023-03-23T09:40:23;99296.34;;;12.49;100.00
64827;BME280;51265;53.972;12.286;2023-03-23T09:46:04;99306.84;;;12.80;100.00
64827;BME280;51265;53.972;12.286;2023-03-23T09:48:46;99291.50;;;12.82;100.00
64827;BME280;51265;53.972;12.286;2023-03-23T09:54:00;99290.38;;;12.59;100.00
64827;BME280;51265;53.972;12.286;2023-03-23T09:56:31;99281.59;;;12.32;100.00
64827;BME280;51265;53.972;12.286;2023-03-23T10:01:37;99305.31;;;12.33;100.00
64827;BME280;51265;53.972;12.286;2023-03-23T10:04:36;99298.97;;;12.45;100.00
64827;BME280;51265;53.972;12.286;2023-03-23T10:07:19;99307.41;;;12.61;100.00
64827;BME280;51265;53.972;12.286;2023-03-23T10:09:48;99302.91;;;12.44;100.00
64827;BME280;51265;53.972;12.286;2023-03-23T10:15:13;99289.66;;;12.37;100.00
64827;BME280;51265;53.972;12.286;2023-03-23T10:17:54;99286.53;;;12.27;100.00
64827;BME280;51265;53.972;12.286;2023-03-23T10:24:07;99315.00;;;10.34;100.00
64827;BME280;51265;53.972;12.286;2023-03-23T10:29:21;99293.13;;;9.47;100.00
64827;BME280;51265;53.972;12.286;2023-03-23T10:32:00;99310.38;;;8.95;100.00
64827;BME280;51265;53.972;12.286;2023-03-23T10:34:35;99344.19;;;8.65;100.00
64827;BME280;51265;53.972;12.286;2023-03-23T10:37:32;99350.31;;;8.62;100.00
64827;BME280;51265;53.972;12.286;2023-03-23T10:40:05;99366.78;;;8.62;100.00
64827;BME280;51265;53.972;12.286;2023-03-23T10:42:34;99379.03;;;8.56;100.00
64827;BME280;51265;53.972;12.286;2023-03-23T10:48:17;99371.63;;;8.65;100.00
64827;BME280;51265;53.972;12.286;2023-03-23T10:50:50;99403.75;;;8.95;100.00
64827;BME280;51265;53.972;12.286;2023-03-23T10:53:22;99415.50;;;9.44;100.00
64827;BME280;51265;53.972;12.286;2023-03-23T10:55:49;99419.28;;;9.66;100.00
64827;BME280;51265;53.972;12.286;2023-03-23T10:58:25;99420.09;;;9.92;100.00
64827;BME280;51265;53.972;12.286;2023-03-23T11:00:51;99427.84;;;10.42;100.00
64827;BME280;51265;53.972;12.286;2023-03-23T11:03:43;99434.69;;;10.83;100.00
64827;BME280;51265;53.972;12.286;2023-03-23T11:06:26;99436.06;;;11.36;100.00
64827;BME280;51265;53.972;12.286;2023-03-23T11:08:58;99426.78;;;11.50;100.00
64827;BME280;51265;53.972;12.286;2023-03-23T11:11:31;99433.09;;;11.71;100.00
64827;BME280;51265;53.972;12.286;2023-03-23T11:14:14;99416.63;;;11.62;100.00
64827;BME280;51265;53.972;12.286;2023-03-23T11:16:50;99408.88;;;11.56;100.00
64827;BME280;51265;53.972;12.286;2023-03-23T11:19:26;99423.06;;;11.96;100.00
64827;BME280;51265;53.972;12.286;2023-03-23T11:22:05;99418.56;;;12.25;100.00
64827;BME280;51265;53.972;12.286;2023-03-23T11:24:36;99416.91;;;12.44;100.00
64827;BME280;51265;53.972;12.286;2023-03-23T11:27:07;99406.59;;;12.66;100.00
64827;BME280;51265;53.972;12.286;2023-03-23T11:29:36;99403.88;;;12.78;100.00
64827;BME280;51265;53.972;12.286;2023-03-23T11:32:10;99402.47;;;12.60;100.00
64827;BME280;51265;53.972;12.286;2023-03-23T11:34:47;99412.84;;;12.63;100.00
64827;BME280;51265;53.972;12.286;2023-03-23T11:40:00;99420.97;;;13.17;100.00
64827;BME280;51265;53.972;12.286;2023-03-23T11:42:56;99399.28;;;13.07;100.00
64827;BME280;51265;53.972;12.286;2023-03-23T11:45:41;99383.50;;;12.83;100.00
64827;BME280;51265;53.972;12.286;2023-03-23T11:53:42;99353.91;;;12.95;100.00
64827;BME280;51265;53.972;12.286;2023-03-23T11:58:50;99335.03;;;13.34;100.00
64827;BME280;51265;53.972;12.286;2023-03-23T12:07:28;99346.56;;;15.12;100.00
64827;BME280;51265;53.972;12.286;2023-03-23T12:10:22;99294.56;;;14.74;100.00
64827;BME280;51265;53.972;12.286;2023-03-23T12:13:10;99239.88;;;13.63;100.00
64827;BME280;51265;53.972;12.286;2023-03-23T12:15:45;99232.13;;;12.88;100.00
64827;BME280;51265;53.972;12.286;2023-03-23T12:18:43;99257.56;;;12.69;100.00
64827;BME280;51265;53.972;12.286;2023-03-23T12:21:39;99268.97;;;12.56;100.00
64827;BME280;51265;53.972;12.286;2023-03-23T12:29:48;99253.25;;;12.11;100.00
64827;BME280;51265;53.972;12.286;2023-03-23T12:40:38;99253.44;;;13.40;100.00
64827;BME280;51265;53.972;12.286;2023-03-23T12:48:51;99172.56;;;12.91;100.00
64827;BME280;51265;53.972;12.286;2023-03-23T12:51:35;99155.75;;;12.96;100.00
64827;BME280;51265;53.972;12.286;2023-03-23T12:56:48;99090.03;;;12.89;100.00
64827;BME280;51265;53.972;12.286;2023-03-23T12:59:25;99080.78;;;12.98;100.00
64827;BME280;51265;53.972;12.286;2023-03-23T13:02:03;99075.38;;;13.01;100.00
64827;BME280;51265;53.972;12.286;2023-03-23T13:04:41;99084.41;;;13.14;99.03
64827;BME280;51265;53.972;12.286;2023-03-23T13:07:17;99056.19;;;13.36;95.91
64827;BME280;51265;53.972;12.286;2023-03-23T13:10:18;99064.22;;;13.57;95.43
64827;BME280;51265;53.972;12.286;2023-03-23T13:12:47;99078.59;;;13.79;95.49
64827;BME280;51265;53.972;12.286;2023-03-23T13:18:07;99034.34;;;13.63;93.86
64827;BME280;51265;53.972;12.286;2023-03-23T13:20:48;99017.03;;;13.66;92.51
64827;BME280;51265;53.972;12.286;2023-03-23T13:23:23;99035.88;;;14.11;92.37
64827;BME280;51265;53.972;12.286;2023-03-23T13:26:08;99015.50;;;14.19;91.26
64827;BME280;51265;53.972;12.286;2023-03-23T13:31:29;98998.84;;;14.00;90.58
64827;BME280;51265;53.972;12.286;2023-03-23T13:34:05;98998.50;;;14.02;91.42
64827;BME280;51265;53.972;12.286;2023-03-23T13:36:37;98972.09;;;13.88;91.31
64827;BME280;51265;53.972;12.286;2023-03-23T13:39:06;98997.63;;;14.17;91.79
64827;BME280;51265;53.972;12.286;2023-03-23T13:41:49;98989.63;;;14.12;91.37
64827;BME280;51265;53.972;12.286;2023-03-23T13:44:26;98997.81;;;13.89;92.41
64827;BME280;51265;53.972;12.286;2023-03-23T13:47:28;98993.47;;;13.72;92.73
64827;BME280;51265;53.972;12.286;2023-03-23T13:50:03;98989.34;;;13.66;92.46
64827;BME280;51265;53.972;12.286;2023-03-23T13:57:55;98957.91;;;13.39;92.39
64827;BME280;51265;53.972;12.286;2023-03-23T14:03:01;98978.66;;;13.17;94.21
64827;BME280;51265;53.972;12.286;2023-03-23T14:05:34;98938.50;;;12.91;93.82
64827;BME280;51265;53.972;12.286;2023-03-23T14:10:40;98938.34;;;12.84;95.63
64827;BME280;51265;53.972;12.286;2023-03-23T14:13:16;98957.22;;;12.82;96.03
64827;BME280;51265;53.972;12.286;2023-03-23T14:15:54;98964.53;;;12.90;95.58
64827;BME280;51265;53.972;12.286;2023-03-23T14:18:21;98981.09;;;12.90;95.76
64827;BME280;51265;53.972;12.286;2023-03-23T14:20:49;98995.50;;;12.96;96.07
64827;BME280;51265;53.972;12.286;2023-03-23T14:23:17;98996.28;;;12.96;95.79
64827;BME280;51265;53.972;12.286;2023-03-23T14:25:45;98997.19;;;13.01;96.10
64827;BME280;51265;53.972;12.286;2023-03-23T14:28:20;98987.53;;;12.94;96.15
64827;BME280;51265;53.972;12.286;2023-03-23T14:30:54;98978.25;;;12.71;95.62
64827;BME280;51265;53.972;12.286;2023-03-23T14:33:21;98981.81;;;12.71;96.70
64827;BME280;51265;53.972;12.286;2023-03-23T14:35:47;98998.91;;;12.77;98.06
64827;BME280;51265;53.972;12.286;2023-03-23T14:38:21;99025.16;;;12.99;99.22
64827;BME280;51265;53.972;12.286;2023-03-23T14:40:50;99051.63;;;13.28;99.83
64827;BME280;51265;53.972;12.286;2023-03-23T14:43:19;99025.25;;;13.47;96.90
64827;BME280;51265;53.972;12.286;2023-03-23T14:45:51;99055.56;;;13.90;97.10
64827;BME280;51265;53.972;12.286;2023-03-23T14:48:18;99058.53;;;14.17;96.67